Map

Track Data

SID SEASON NUMBER BASIN SUBBASIN NAME ISO_TIME NATURE LAT LON WMO_WIND WMO_PRES WMO_AGENCY TRACK_TYPE DIST2LAND LANDFALL IFLAG USA_AGENCY USA_ATCF_ID USA_LAT USA_LON USA_RECORD USA_STATUS USA_WIND USA_PRES USA_SSHS USA_R34_NE USA_R34_SE USA_R34_SW USA_R34_NW USA_R50_NE USA_R50_SE USA_R50_SW USA_R50_NW USA_R64_NE USA_R64_SE USA_R64_SW USA_R64_NW USA_POCI USA_ROCI USA_RMW USA_EYE TOKYO_LAT TOKYO_LON TOKYO_GRADE TOKYO_WIND TOKYO_PRES TOKYO_R50_DIR TOKYO_R50_LONG TOKYO_R50_SHORT TOKYO_R30_DIR TOKYO_R30_LONG TOKYO_R30_SHORT TOKYO_LAND CMA_LAT CMA_LON CMA_CAT CMA_WIND CMA_PRES HKO_LAT HKO_LON HKO_CAT HKO_WIND HKO_PRES NEWDELHI_LAT NEWDELHI_LON NEWDELHI_GRADE NEWDELHI_WIND NEWDELHI_PRES NEWDELHI_CI NEWDELHI_DP NEWDELHI_POCI REUNION_LAT REUNION_LON REUNION_TYPE REUNION_WIND REUNION_PRES REUNION_TNUM REUNION_CI REUNION_RMW REUNION_R34_NE REUNION_R34_SE REUNION_R34_SW REUNION_R34_NW REUNION_R50_NE REUNION_R50_SE REUNION_R50_SW REUNION_R50_NW REUNION_R64_NE REUNION_R64_SE REUNION_R64_SW REUNION_R64_NW BOM_LAT BOM_LON BOM_TYPE BOM_WIND BOM_PRES BOM_TNUM BOM_CI BOM_RMW BOM_R34_NE BOM_R34_SE BOM_R34_SW BOM_R34_NW BOM_R50_NE BOM_R50_SE BOM_R50_SW BOM_R50_NW BOM_R64_NE BOM_R64_SE BOM_R64_SW BOM_R64_NW BOM_ROCI BOM_POCI BOM_EYE BOM_POS_METHOD BOM_PRES_METHOD NADI_LAT NADI_LON NADI_CAT NADI_WIND NADI_PRES WELLINGTON_LAT WELLINGTON_LON WELLINGTON_WIND WELLINGTON_PRES DS824_LAT DS824_LON DS824_STAGE DS824_WIND DS824_PRES TD9636_LAT TD9636_LON TD9636_STAGE TD9636_WIND TD9636_PRES TD9635_LAT TD9635_LON TD9635_WIND TD9635_PRES TD9635_ROCI NEUMANN_LAT NEUMANN_LON NEUMANN_CLASS NEUMANN_WIND NEUMANN_PRES MLC_LAT MLC_LON MLC_CLASS MLC_WIND MLC_PRES USA_GUST BOM_GUST BOM_GUST_PER REUNION_GUST REUNION_GUST_PER USA_SEAHGT USA_SEARAD_NE USA_SEARAD_SE USA_SEARAD_SW USA_SEARAD_NW STORM_SPEED STORM_DIR
2010232N18253 2010 43 EP MM NOT_NAMED 2010-08-20 06:00:00 TS 18.2000 -107.200 30 1004 hurdat_epa main 260 253 O_____________ hurdat_epa EP082010 18.2000 -107.200 TD 30 1004 -1 1008 160 20 40 8 320
2010232N18253 2010 43 EP MM NOT_NAMED 2010-08-20 09:00:00 TS 18.5125 -107.472 main 267 261 P_____________ EP082010 18.5125 -107.472 TD 30 1004 -1 1008 180 20 8 317
2010232N18253 2010 43 EP MM NOT_NAMED 2010-08-20 12:00:00 TS 18.8000 -107.800 30 1004 hurdat_epa main 276 276 O_____________ hurdat_epa EP082010 18.8000 -107.800 TD 30 1004 -1 1008 200 20 40 9 307
2010232N18253 2010 43 EP MM NOT_NAMED 2010-08-20 15:00:00 TS 19.0500 -108.220 main 304 299 P_____________ EP082010 19.0500 -108.220 TD 30 1003 -1 1008 175 20 10 300
2010232N18253 2010 43 EP MM NOT_NAMED 2010-08-20 18:00:00 TS 19.3000 -108.700 30 1003 hurdat_epa main 337 337 O_____________ hurdat_epa EP082010 19.3000 -108.700 TD 30 1003 -1 1008 150 20 40 11 301
2010232N18253 2010 43 EP MM NOT_NAMED 2010-08-20 21:00:00 TS 19.6150 -109.207 main 374 335 P_____________ EP082010 19.6150 -109.207 TD 30 1003 -1 1008 150 20 11 302
2010232N18253 2010 43 EP MM NOT_NAMED 2010-08-21 00:00:00 TS 19.9000 -109.700 30 1004 hurdat_epa main 335 313 O_____________ hurdat_epa EP082010 19.9000 -109.700 TD 30 1004 -1 1008 150 20 40 10 298
2010232N18253 2010 43 EP MM NOT_NAMED 2010-08-21 03:00:00 TS 20.0799 -110.130 main 313 303 P_____________ EP082010 20.0799 -110.130 TD 27 1004 -1 1008 150 20 8 292
2010232N18253 2010 43 EP MM NOT_NAMED 2010-08-21 06:00:00 TS 20.2000 -110.500 25 1005 hurdat_epa main 306 299 O_____________ hurdat_epa EP082010 20.2000 -110.500 TD 25 1005 -1 1008 150 20 35 7 289
2010232N18253 2010 43 EP MM NOT_NAMED 2010-08-21 09:00:00 TS 20.2999 -110.815 main 302 298 P_____________ EP082010 20.2999 -110.815 TD 25 1005 -1 1008 140 20 6 290
2010232N18253 2010 43 EP MM NOT_NAMED 2010-08-21 12:00:00 TS 20.4000 -111.100 25 1005 hurdat_epa main 301 295 O_____________ hurdat_epa EP082010 20.4000 -111.100 TD 25 1005 -1 1008 130 20 35 6 294
2010232N18253 2010 43 EP MM NOT_NAMED 2010-08-21 15:00:00 TS 20.5424 -111.400 main 304 294 P_____________ EP082010 20.5424 -111.400 TD 25 1005 -1 1008 115 20 6 298
2010232N18253 2010 43 EP MM NOT_NAMED 2010-08-21 18:00:00 DS 20.7000 -111.700 25 1005 hurdat_epa main 302 299 O_____________ hurdat_epa EP082010 20.7000 -111.700 LO 25 1005 -3 1008 100 20 35 6 299
2010232N18253 2010 43 EP MM NOT_NAMED 2010-08-21 21:00:00 DS 20.8499 -111.993 main 312 304 P_____________ EP082010 20.8499 -111.993 LO 25 1005 -3 1008 100 20 6 298
2010232N18253 2010 43 EP MM NOT_NAMED 2010-08-22 00:00:00 DS 21.0000 -112.300 25 1005 hurdat_epa main 318 318 O_____________ hurdat_epa EP082010 21.0000 -112.300 LO 25 1005 -3 1008 100 20 35 7 297
2010232N18253 2010 43 EP MM NOT_NAMED 2010-08-22 03:00:00 DS 21.1650 -112.650 main 328 328 P_____________ EP082010 21.1650 -112.650 LO 25 1006 -3 929 7 295
2010232N18253 2010 43 EP MM NOT_NAMED 2010-08-22 06:00:00 DS 21.3000 -113.000 25 1007 hurdat_epa main 357 357 O_____________ hurdat_epa EP082010 21.3000 -113.000 LO 25 1007 -3 850 6 288
2010232N18253 2010 43 EP MM NOT_NAMED 2010-08-22 09:00:00 DS 21.3649 -113.308 main 376 376 P_____________ EP082010 21.3649 -113.308 LO 22 1007 -3 850 6 280
2010232N18253 2010 43 EP MM NOT_NAMED 2010-08-22 12:00:00 DS 21.4000 -113.600 20 1008 hurdat_epa main 392 392 O_____________ hurdat_epa EP082010 21.4000 -113.600 LO 20 1008 -3 850 6 280
2010232N18253 2010 43 EP MM NOT_NAMED 2010-08-22 15:00:00 DS 21.4574 -113.900 main 398 398 P_____________ EP082010 21.4574 -113.900 LO 20 1008 -3 850 6 280
2010232N18253 2010 43 EP MM NOT_NAMED 2010-08-22 18:00:00 DS 21.5000 -114.200 20 1009 hurdat_epa main 415 415 O_____________ hurdat_epa EP082010 21.5000 -114.200 LO 20 1009 -3 850 6 275
2010232N18253 2010 43 EP MM NOT_NAMED 2010-08-22 21:00:00 DS 21.5101 -114.500 main 433 433 P_____________ EP082010 21.5101 -114.500 LO 20 1009 -3 850 6 270
2010232N18253 2010 43 EP MM NOT_NAMED 2010-08-23 00:00:00 DS 21.5000 -114.800 20 1010 hurdat_epa main 451 O_____________ hurdat_epa EP082010 21.5000 -114.800 LO 20 1010 -3 850 6 268

About IBTrACS Database

This database is a web-friendly format of International Best Track Archive for Climate Stewardship (IBTrACS), a global best track data archive curated by NOAA dating back to 1842.

Updated: 2021-11-26